Time;durP1;ratioP1;P1;durP2;ratioP2;P2;SDS_P1;SDS_P2;PMS_P1;PMS_P2;Temp;Humidity;BMP_temperature;BMP_pressure;BME280_temperature;BME280_humidity;BME280_pressure;Samples;Min_cycle;Max_cycle;Signal;HPM_P1;HPM_P2
2022/09/17 00:01:53;;;;;;;43.13;5.25;;;;;;;10.79;100.00;155236.53;4957365;28;20039;-81
2022/09/17 00:04:18;;;;;;;31.70;4.20;;;;;;;10.80;100.00;155237.84;4936855;28;20047;-81
2022/09/17 00:06:44;;;;;;;33.97;4.53;;;;;;;10.75;100.00;155225.00;4954657;28;20047;-81
2022/09/17 00:09:10;;;;;;;32.03;4.55;;;;;;;10.82;100.00;155244.25;4938820;29;20382;-83
2022/09/17 00:11:38;;;;;;;32.83;4.60;;;;;;;10.92;100.00;155268.63;4952604;28;20043;-82
2022/09/17 00:14:06;;;;;;;39.97;5.22;;;;;;;10.89;100.00;155260.94;4959853;28;20039;-80
2022/09/17 00:16:39;;;;;;;44.45;5.28;;;;;;;10.86;100.00;155253.22;4953251;28;20069;-84
2022/09/17 00:19:05;;;;;;;;;;;;;;;10.84;100.00;155249.38;4926707;29;20047;-81
2022/09/17 00:21:31;;;;;;;34.83;4.60;;;;;;;10.84;100.00;155248.09;4922892;28;19929;-82
2022/09/17 00:24:00;;;;;;;33.47;4.22;;;;;;;10.84;100.00;155249.38;4933718;29;20039;-80
2022/09/17 00:26:27;;;;;;;44.50;5.45;;;;;;;10.87;100.00;155257.09;4929544;28;20032;-81
2022/09/17 00:28:54;;;;;;;37.85;4.65;;;;;;;10.86;100.00;155254.50;4921227;29;20051;-81
2022/09/17 00:31:20;;;;;;;35.45;4.57;;;;;;;10.84;100.00;155249.38;4952350;28;20046;-81
2022/09/17 00:33:46;;;;;;;41.85;4.95;;;;;;;10.86;100.00;155253.22;4936617;29;20118;-81
2022/09/17 00:36:12;;;;;;;33.63;4.70;;;;;;;10.84;100.00;155249.38;4951199;28;20471;-80
2022/09/17 00:38:38;;;;;;;33.17;4.43;;;;;;;10.96;100.00;155277.59;4956428;28;20031;-83
2022/09/17 00:41:04;;;;;;;40.03;4.95;;;;;;;10.91;100.00;155267.34;4938897;29;20050;-81
2022/09/17 00:43:37;;;;;;;38.60;4.70;;;;;;;10.95;100.00;155276.34;4945100;28;20059;-82
2022/09/17 00:46:35;;;;;;;37.50;4.95;;;;;;;10.90;100.00;155264.75;4953391;28;20035;-81
2022/09/17 00:49:11;;;;;;;28.77;4.38;;;;;;;10.99;100.00;155285.31;4917621;29;20051;-82
2022/09/17 00:51:43;;;;;;;31.23;4.80;;;;;;;10.93;100.00;155271.22;4940507;28;20429;-82
2022/09/17 00:54:09;;;;;;;32.05;5.28;;;;;;;11.02;100.00;155294.31;4935594;29;20043;-80
2022/09/17 00:56:38;;;;;;;29.02;4.00;;;;;;;10.99;100.00;155285.31;4928535;29;20047;-79
2022/09/17 00:59:04;;;;;;;32.92;4.50;;;;;;;10.75;100.00;155225.00;4938267;29;20073;-81
2022/09/17 01:01:31;;;;;;;29.75;4.72;;;;;;;10.85;100.00;155251.97;4937313;28;20050;-80
2022/09/17 01:03:57;;;;;;;30.17;4.70;;;;;;;10.80;100.00;155239.13;4938411;29;20051;-81
2022/09/17 01:06:40;;;;;;;27.15;4.45;;;;;;;10.71;100.00;155217.28;4937535;28;20162;-80
2022/09/17 01:09:20;;;;;;;33.42;3.67;;;;;;;10.75;100.00;155225.00;4936003;28;20125;-81
2022/09/17 01:12:01;;;;;;;29.48;4.25;;;;;;;10.66;100.00;155204.50;4939762;29;20063;-80
2022/09/17 01:14:56;;;;;;;30.42;3.70;;;;;;;10.64;100.00;155199.38;4937114;28;20058;-83
2022/09/17 01:17:28;;;;;;;27.15;3.80;;;;;;;10.47;100.00;155157.03;4936214;28;20046;-82
2022/09/17 01:20:26;;;;;;;29.80;4.47;;;;;;;10.45;100.00;155150.59;4934143;29;20043;-81
2022/09/17 01:23:23;;;;;;;34.92;4.40;;;;;;;10.39;100.00;155136.47;4927313;28;20054;-80
2022/09/17 01:25:57;;;;;;;24.40;4.28;;;;;;;10.37;100.00;155130.06;4935308;29;20448;-81
2022/09/17 01:28:33;;;;;;;23.27;3.28;;;;;;;10.26;100.00;155103.06;4922235;28;20046;-82
2022/09/17 01:31:10;;;;;;;26.35;3.85;;;;;;;10.24;100.00;155097.94;4936901;29;20050;-80
2022/09/17 01:33:54;;;;;;;30.83;4.05;;;;;;;10.17;100.00;155081.31;4952045;28;20039;-79
2022/09/17 01:36:28;;;;;;;22.88;3.63;;;;;;;10.25;100.00;155100.53;4922742;28;20041;-81
2022/09/17 01:39:13;;;;;;;33.60;3.85;;;;;;;10.19;100.00;155085.09;4933447;29;20042;-81
2022/09/17 01:41:45;;;;;;;34.08;4.40;;;;;;;10.26;100.00;155104.34;4932328;29;20066;-81
2022/09/17 01:44:15;;;;;;;31.05;4.13;;;;;;;10.25;100.00;155101.81;4934285;28;20113;-79
2022/09/17 01:46:54;;;;;;;28.67;3.78;;;;;;;10.19;100.00;155085.09;4917440;29;20039;-79
2022/09/17 01:49:24;;;;;;;33.60;4.05;;;;;;;10.11;100.00;155067.19;4920359;28;20751;-81
2022/09/17 01:51:52;;;;;;;26.67;4.00;;;;;;;10.07;100.00;155055.63;4937191;29;20054;-82
2022/09/17 01:54:24;;;;;;;23.10;3.40;;;;;;;10.00;100.00;155037.66;4965831;28;20053;-80
2022/09/17 01:57:07;;;;;;;27.42;4.13;;;;;;;9.97;100.00;155031.25;4956698;28;20035;-82
2022/09/17 01:59:42;;;;;;;33.70;4.40;;;;;;;10.02;100.00;155044.09;4944958;28;20346;-81
2022/09/17 02:02:17;;;;;;;20.88;3.50;;;;;;;10.02;100.00;155042.78;4939361;29;20057;-80
2022/09/17 02:04:54;;;;;;;24.70;3.65;;;;;;;9.93;100.00;155022.28;4958895;28;20045;-80
2022/09/17 02:07:22;;;;;;;29.83;3.83;;;;;;;9.96;100.00;155028.69;4944928;28;20046;-79
2022/09/17 02:10:04;;;;;;;30.42;4.28;;;;;;;9.93;100.00;155022.28;4958846;28;20501;-80
2022/09/17 02:12:35;;;;;;;42.33;4.00;;;;;;;9.98;100.00;155033.81;4959736;28;20126;-80
2022/09/17 02:15:06;;;;;;;26.75;3.10;;;;;;;9.96;100.00;155028.69;4941886;29;20049;-81
2022/09/17 02:17:41;;;;;;;32.60;3.70;;;;;;;9.97;100.00;155030.00;4949574;28;20102;-80
2022/09/17 02:20:07;;;;;;;26.60;3.67;;;;;;;9.94;100.00;155023.56;4936711;29;20098;-81
2022/09/17 02:23:06;;;;;;;36.80;4.35;;;;;;;9.86;100.00;155004.31;4941224;28;20067;-80
2022/09/17 02:25:37;;;;;;;27.25;3.95;;;;;;;9.83;100.00;154995.34;4908284;28;20069;-80
2022/09/17 02:28:26;;;;;;;26.73;3.60;;;;;;;9.80;100.00;154988.94;4949448;28;20933;-80
2022/09/17 02:30:53;;;;;;;22.42;3.10;;;;;;;9.81;100.00;154990.22;4942701;28;20035;-80
2022/09/17 02:33:20;;;;;;;24.45;3.47;;;;;;;9.90;100.00;155013.31;4918958;28;20048;-81
2022/09/17 02:35:46;;;;;;;26.33;3.75;;;;;;;9.94;100.00;155023.56;4936419;29;20497;-81
2022/09/17 02:38:11;;;;;;;23.60;3.42;;;;;;;9.91;100.00;155015.88;4939499;28;20043;-81
2022/09/17 02:40:48;;;;;;;27.90;2.92;;;;;;;9.96;100.00;155027.41;4915971;29;20086;-80
2022/09/17 02:43:50;;;;;;;22.48;3.15;;;;;;;10.02;100.00;155044.09;4943852;28;20066;-80
2022/09/17 02:46:37;;;;;;;20.13;3.47;;;;;;;9.99;100.00;155036.38;4938988;28;20101;-80
2022/09/17 02:49:21;;;;;;;26.23;3.72;;;;;;;10.04;100.00;155047.91;4930550;29;20457;-80
2022/09/17 02:52:03;;;;;;;25.30;3.25;;;;;;;9.96;100.00;155027.41;4953957;28;20043;-81
2022/09/17 02:54:51;;;;;;;28.23;3.15;;;;;;;9.91;100.00;155015.88;4936194;28;20055;-80
2022/09/17 02:57:26;;;;;;;28.42;4.05;;;;;;;9.87;100.00;155006.91;4937019;28;20039;-83
2022/09/17 03:00:11;;;;;;;28.67;4.03;;;;;;;9.82;100.00;154992.81;4941930;28;20850;-80
2022/09/17 03:02:46;;;;;;;28.55;4.20;;;;;;;9.78;100.00;154983.81;4934197;29;20047;-81
2022/09/17 03:05:13;;;;;;;24.70;3.38;;;;;;;9.86;100.00;155003.06;4916099;28;20090;-82
2022/09/17 03:07:39;;;;;;;27.45;3.55;;;;;;;9.87;100.00;155005.59;4937056;29;20515;-80
2022/09/17 03:10:05;;;;;;;22.35;3.42;;;;;;;9.89;100.00;155010.75;4929686;29;20048;-81
2022/09/17 03:12:31;;;;;;;19.77;3.45;;;;;;;9.89;100.00;155012.03;4946203;28;20039;-80
2022/09/17 03:14:57;;;;;;;21.05;2.95;;;;;;;9.87;100.00;155006.91;4937797;29;20035;-82
2022/09/17 03:17:22;;;;;;;23.48;3.20;;;;;;;9.87;100.00;155006.91;4950552;28;20498;-82
2022/09/17 03:19:48;;;;;;;22.90;3.20;;;;;;;9.80;100.00;154988.94;4938622;29;20043;-83
2022/09/17 03:22:13;;;;;;;24.83;3.65;;;;;;;9.87;100.00;155005.59;4951943;28;20501;-80
2022/09/17 03:24:39;;;;;;;27.67;3.33;;;;;;;9.77;100.00;154979.97;4936366;29;20040;-81
2022/09/17 03:27:04;;;;;;;20.00;3.20;;;;;;;9.74;100.00;154973.56;4936205;28;20035;-83
2022/09/17 03:29:30;;;;;;;26.58;3.55;;;;;;;9.78;100.00;154982.56;4947765;28;20039;-82
2022/09/17 03:31:56;;;;;;;21.10;3.25;;;;;;;9.82;100.00;154994.06;4946093;29;20043;-83
2022/09/17 03:34:22;;;;;;;21.45;3.35;;;;;;;9.86;100.00;155004.31;4954003;28;20046;-81
2022/09/17 03:36:48;;;;;;;27.02;3.33;;;;;;;9.91;100.00;155015.88;4939138;29;20486;-82
2022/09/17 03:39:13;;;;;;;23.15;3.50;;;;;;;9.92;100.00;155018.44;4945993;28;20051;-80
2022/09/17 03:41:39;;;;;;;21.65;2.80;;;;;;;9.91;100.00;155015.88;4946017;29;20035;-81
2022/09/17 03:44:05;;;;;;;19.38;3.67;;;;;;;9.94;100.00;155024.88;4951555;28;20046;-81
2022/09/17 03:46:31;;;;;;;20.73;2.78;;;;;;;9.91;100.00;155017.16;4954884;28;20517;-82
2022/09/17 03:48:57;;;;;;;18.80;3.13;;;;;;;9.99;100.00;155035.13;4939440;29;20118;-82
2022/09/17 03:51:22;;;;;;;26.75;3.40;;;;;;;10.02;100.00;155042.78;4953694;28;20032;-80
2022/09/17 03:53:48;;;;;;;24.75;2.88;;;;;;;10.05;100.00;155050.50;4944494;29;20043;-82
2022/09/17 03:56:13;;;;;;;25.25;3.30;;;;;;;10.01;100.00;155041.50;4958579;28;20042;-81
2022/09/17 03:58:39;;;;;;;19.00;3.30;;;;;;;9.97;100.00;155030.00;4923468;29;20035;-82
2022/09/17 04:01:05;;;;;;;17.95;3.05;;;;;;;9.97;100.00;155031.25;4938267;29;20086;-83
2022/09/17 04:03:31;;;;;;;19.40;3.42;;;;;;;9.92;100.00;155019.69;4934705;28;20035;-83
2022/09/17 04:05:56;;;;;;;26.98;3.42;;;;;;;9.97;100.00;155031.25;4941114;28;20035;-83
2022/09/17 04:08:22;;;;;;;24.65;3.33;;;;;;;9.85;100.00;155000.47;4954284;28;20039;-83
2022/09/17 04:10:49;;;;;;;18.77;2.42;;;;;;;9.89;100.00;155010.75;4941175;29;20035;-82
2022/09/17 04:13:15;;;;;;;19.67;3.10;;;;;;;9.91;100.00;155017.16;4939284;28;20050;-83
2022/09/17 04:15:41;;;;;;;16.05;2.45;;;;;;;9.83;100.00;154995.34;4941652;29;20517;-81
2022/09/17 04:18:07;;;;;;;14.80;2.55;;;;;;;9.88;100.00;155009.44;4938163;29;20035;-82
2022/09/17 04:20:33;;;;;;;17.35;2.60;;;;;;;9.81;100.00;154991.47;4959977;28;20038;-82
2022/09/17 04:22:58;;;;;;;16.75;2.72;;;;;;;9.81;100.00;154991.47;4926003;29;20040;-81
2022/09/17 04:25:24;;;;;;;14.25;2.50;;;;;;;9.79;100.00;154985.09;4944203;28;20038;-83
2022/09/17 04:27:50;;;;;;;26.13;3.20;;;;;;;9.75;100.00;154977.38;4956265;28;20482;-82
2022/09/17 04:30:16;;;;;;;17.45;2.55;;;;;;;9.82;100.00;154994.06;4955103;28;20043;-80
2022/09/17 04:32:43;;;;;;;16.25;2.85;;;;;;;9.78;100.00;154983.81;4957939;28;20046;-82
2022/09/17 04:35:10;;;;;;;20.63;3.08;;;;;;;9.83;100.00;154996.66;4934674;29;20094;-81
2022/09/17 04:37:36;;;;;;;17.15;2.90;;;;;;;9.70;100.00;154963.28;4941459;29;20043;-80
2022/09/17 04:40:02;;;;;;;20.17;2.67;;;;;;;9.73;100.00;154970.97;4942850;29;20046;-81
2022/09/17 04:42:28;;;;;;;21.48;2.55;;;;;;;9.72;100.00;154969.72;4947092;28;20578;-82
2022/09/17 04:44:54;;;;;;;15.98;3.05;;;;;;;9.81;100.00;154991.47;4924259;29;20251;-82
2022/09/17 04:47:19;;;;;;;21.60;2.95;;;;;;;9.81;100.00;154990.22;4937438;28;20494;-83
2022/09/17 04:49:45;;;;;;;20.83;3.05;;;;;;;9.79;100.00;154986.34;4951740;28;20121;-81
2022/09/17 04:52:11;;;;;;;23.73;3.55;;;;;;;9.83;100.00;154995.34;4946780;28;20043;-80
2022/09/17 04:54:36;;;;;;;25.73;3.47;;;;;;;9.82;100.00;154994.06;4923958;29;20425;-83
2022/09/17 04:57:02;;;;;;;19.58;2.60;;;;;;;9.78;100.00;154982.56;4941712;29;20560;-81
2022/09/17 04:59:28;;;;;;;20.58;2.75;;;;;;;9.77;100.00;154979.97;4925067;28;20046;-81
2022/09/17 05:01:54;;;;;;;23.95;2.88;;;;;;;9.68;100.00;154958.16;4937888;29;20084;-81
2022/09/17 05:04:19;;;;;;;21.30;3.15;;;;;;;9.75;100.00;154977.38;4955223;28;20034;-80
2022/09/17 05:06:45;;;;;;;19.05;2.47;;;;;;;9.70;100.00;154964.59;4959625;28;20065;-82
2022/09/17 05:09:11;;;;;;;16.02;2.75;;;;;;;9.70;100.00;154964.59;4953645;28;20039;-80
2022/09/17 05:11:36;;;;;;;21.70;2.70;;;;;;;9.71;100.00;154967.13;4941327;29;20047;-80
2022/09/17 05:14:02;;;;;;;20.02;2.50;;;;;;;9.73;100.00;154970.97;4942330;29;20042;-80
2022/09/17 05:16:28;;;;;;;22.45;2.78;;;;;;;9.67;100.00;154955.59;4954123;28;20054;-79
2022/09/17 05:18:53;;;;;;;21.08;2.60;;;;;;;9.70;100.00;154964.59;4947744;28;20401;-82
2022/09/17 05:21:22;;;;;;;20.35;2.65;;;;;;;9.71;100.00;154965.84;4924405;28;20090;-81
2022/09/17 05:23:48;;;;;;;17.48;2.45;;;;;;;9.75;100.00;154976.09;4957136;28;20122;-81
2022/09/17 05:26:14;;;;;;;17.10;2.50;;;;;;;9.75;100.00;154977.38;4940663;28;20539;-82
2022/09/17 05:28:40;;;;;;;15.07;2.30;;;;;;;9.75;100.00;154977.38;4923901;29;20031;-81
2022/09/17 05:31:05;;;;;;;16.75;2.70;;;;;;;9.72;100.00;154969.72;4950762;28;20418;-82
2022/09/17 05:33:31;;;;;;;18.15;2.78;;;;;;;9.79;100.00;154986.34;4940519;28;20165;-82
2022/09/17 05:35:56;;;;;;;15.90;2.30;;;;;;;9.84;100.00;154997.94;4940333;28;20564;-81
2022/09/17 05:38:22;;;;;;;18.88;2.75;;;;;;;9.83;100.00;154995.34;4938797;28;20090;-81
2022/09/17 05:40:48;;;;;;;16.08;2.08;;;;;;;9.77;100.00;154979.97;4940950;29;20042;-81
2022/09/17 05:43:14;;;;;;;17.35;2.28;;;;;;;9.72;100.00;154969.72;4955685;28;20047;-81
2022/09/17 05:45:40;;;;;;;22.75;2.78;;;;;;;9.73;100.00;154972.25;4935968;29;20078;-80
2022/09/17 05:48:08;;;;;;;18.50;2.83;;;;;;;9.75;100.00;154977.38;4967142;28;20122;-81
2022/09/17 05:50:34;;;;;;;17.40;2.45;;;;;;;9.82;100.00;154992.81;4953827;28;20117;-82
2022/09/17 05:53:06;;;;;;;19.48;3.10;;;;;;;9.86;100.00;155004.31;4948331;28;20034;-81
2022/09/17 05:55:32;;;;;;;24.17;3.05;;;;;;;9.86;100.00;155004.31;4955976;28;20069;-82
2022/09/17 05:57:58;;;;;;;17.40;2.28;;;;;;;9.95;100.00;155026.13;4946828;29;20035;-80
2022/09/17 06:00:23;;;;;;;18.25;2.35;;;;;;;9.87;100.00;155005.59;4923712;28;20054;-84
2022/09/17 06:02:56;;;;;;;19.38;2.25;;;;;;;9.95;100.00;155026.13;4940716;28;20039;-82
2022/09/17 06:05:23;;;;;;;20.88;2.38;;;;;;;9.92;100.00;155018.44;4930177;28;20171;-82
2022/09/17 06:07:49;;;;;;;22.70;2.72;;;;;;;9.85;100.00;155001.78;4943453;28;20042;-81
2022/09/17 06:10:15;;;;;;;16.17;2.30;;;;;;;9.94;100.00;155023.56;4940587;28;20110;-81
2022/09/17 06:12:40;;;;;;;19.90;2.50;;;;;;;9.97;100.00;155030.00;4960377;28;20041;-80
2022/09/17 06:15:06;;;;;;;16.20;2.20;;;;;;;9.99;100.00;155035.13;4928290;29;20046;-82
2022/09/17 06:17:34;;;;;;;21.13;2.55;;;;;;;9.95;100.00;155026.13;4957336;28;20101;-83
2022/09/17 06:20:00;;;;;;;15.68;2.35;;;;;;;9.96;100.00;155027.41;4947712;29;20038;-83
2022/09/17 06:22:25;;;;;;;16.30;2.08;;;;;;;9.96;100.00;155027.41;4926784;28;20053;-82
2022/09/17 06:24:51;;;;;;;18.42;2.47;;;;;;;9.85;100.00;155000.47;4941580;29;20035;-81
2022/09/17 06:27:16;;;;;;;21.98;2.67;;;;;;;9.77;100.00;154979.97;4924214;28;20039;-82
2022/09/17 06:29:42;;;;;;;14.45;2.22;;;;;;;9.83;100.00;154996.66;4923105;29;20043;-83
2022/09/17 06:32:11;;;;;;;24.30;2.72;;;;;;;9.81;100.00;154990.22;4944111;29;20043;-82
2022/09/17 06:34:38;;;;;;;19.48;2.85;;;;;;;9.82;100.00;154992.81;4926433;29;20042;-83
2022/09/17 06:37:04;;;;;;;23.38;2.58;;;;;;;9.77;100.00;154981.25;4959543;28;20061;-81
2022/09/17 06:39:30;;;;;;;16.67;2.75;;;;;;;9.64;100.00;154949.16;4945231;28;20042;-81
2022/09/17 06:41:56;;;;;;;19.10;2.25;;;;;;;9.71;100.00;154965.84;4923977;28;20044;-79
2022/09/17 06:44:22;;;;;;;17.55;2.30;;;;;;;9.64;100.00;154949.16;4926484;28;20786;-79
2022/09/17 06:46:49;;;;;;;17.15;2.30;;;;;;;9.65;100.00;154951.75;4925736;29;20047;-81
2022/09/17 06:49:16;;;;;;;14.77;2.15;;;;;;;9.72;100.00;154969.72;4941645;28;20070;-81
2022/09/17 06:51:42;;;;;;;15.68;2.80;;;;;;;9.81;100.00;154990.22;4930570;29;20409;-81
2022/09/17 06:54:08;;;;;;;22.63;2.75;;;;;;;9.96;100.00;155027.41;4962572;28;20035;-84
2022/09/17 06:56:33;;;;;;;25.23;2.78;;;;;;;10.30;100.00;155114.69;4942060;28;20053;-82
2022/09/17 06:59:00;;;;;;;26.42;2.88;;;;;;;10.43;100.00;155146.72;4951803;29;20042;-83
2022/09/17 07:01:25;;;;;;;17.02;2.28;;;;;;;10.76;100.00;155227.59;4930614;28;20039;-83
2022/09/17 07:03:51;;;;;;;17.73;3.20;;;;;;;10.86;100.00;155253.22;4949459;29;20124;-84
2022/09/17 07:06:17;;;;;;;13.93;2.50;;;;;;;10.87;100.00;155255.81;4967303;28;20039;-79
2022/09/17 07:08:42;;;;;;;15.90;2.70;;;;;;;11.10;100.00;155313.56;4960283;29;20043;-80
2022/09/17 07:11:08;;;;;;;13.82;2.08;;;;;;;11.14;100.00;155322.53;4957850;29;20051;-79
2022/09/17 07:13:34;;;;;;;16.50;2.03;;;;;;;11.23;100.00;155345.66;4965336;28;20016;-81
2022/09/17 07:16:01;;;;;;;13.95;2.03;;;;;;;11.25;100.00;155352.06;4957832;28;20043;-82
2022/09/17 07:18:27;;;;;;;13.75;2.13;;;;;;;11.33;100.00;155371.31;4969391;28;20035;-80
2022/09/17 07:21:00;;;;;;;15.18;2.10;;;;;;;11.26;100.00;155354.63;4942998;29;20067;-81
2022/09/17 07:23:31;;;;;;;14.07;1.73;;;;;;;11.49;100.00;155412.38;4951733;28;20046;-81
2022/09/17 07:25:59;;;;;;;13.35;2.08;;;;;;;11.79;100.00;155486.84;4943336;29;20031;-80
2022/09/17 07:28:26;;;;;;;12.13;1.73;;;;;;;11.92;100.00;155517.69;4948943;28;20046;-79
2022/09/17 07:30:52;;;;;;;10.15;1.55;;;;;;;11.83;100.00;155495.84;4957621;28;20050;-78
2022/09/17 07:33:22;;;;;;;14.73;1.75;;;;;;;11.92;100.00;155518.97;4927952;28;20493;-78
2022/09/17 07:35:59;;;;;;;11.05;1.52;;;;;;;11.74;100.00;155474.00;4956064;28;20031;-78
2022/09/17 07:38:25;;;;;;;12.27;1.85;;;;;;;11.66;100.00;155453.47;4934112;28;20035;-80
2022/09/17 07:41:03;;;;;;;11.10;1.77;;;;;;;11.45;100.00;155402.13;4921486;29;20027;-78
2022/09/17 07:43:33;;;;;;;9.32;1.80;;;;;;;11.41;100.00;155391.81;4920317;28;20043;-78
2022/09/17 07:46:01;;;;;;;13.30;1.75;;;;;;;11.51;100.00;155416.25;4914487;29;20265;-77
2022/09/17 07:48:27;;;;;;;10.88;1.73;;;;;;;11.56;100.00;155427.78;4947919;28;20091;-81
2022/09/17 07:50:54;;;;;;;14.20;1.77;;;;;;;11.63;100.00;155447.03;4921895;29;20035;-79
2022/09/17 07:53:21;;;;;;;15.82;1.95;;;;;;;11.55;100.00;155425.25;4955043;28;20039;-76
2022/09/17 07:55:52;;;;;;;7.97;1.30;;;;;;;11.73;100.00;155470.16;4941122;28;20039;-78
2022/09/17 07:58:17;;;;;;;11.85;1.65;;;;;;;11.79;100.00;155486.84;4945061;28;20031;-80
2022/09/17 08:00:43;;;;;;;6.25;1.20;;;;;;;11.92;100.00;155517.69;4933891;29;20043;-78
2022/09/17 08:03:08;;;;;;;10.95;1.60;;;;;;;12.20;100.00;155589.59;4941127;29;20039;-79
2022/09/17 08:05:34;;;;;;;10.15;1.90;;;;;;;12.36;100.00;155629.44;4950818;28;20095;-78
2022/09/17 08:08:00;;;;;;;7.22;1.30;;;;;;;12.51;100.00;155666.69;4934993;29;20043;-77
2022/09/17 08:10:26;;;;;;;10.15;1.63;;;;;;;12.85;100.00;155752.75;4934020;28;20039;-79
2022/09/17 08:12:56;;;;;;;11.80;2.10;;;;;;;13.10;100.00;155814.41;4938449;29;20812;-77
2022/09/17 08:15:22;;;;;;;12.40;1.70;;;;;;;13.18;100.00;155833.69;4948974;28;20111;-78
2022/09/17 08:17:50;;;;;;;10.10;1.38;;;;;;;12.99;100.00;155786.16;4941752;28;20480;-79
2022/09/17 08:20:17;;;;;;;9.45;1.48;;;;;;;12.73;100.00;155721.91;4945256;28;20054;-80
2022/09/17 08:22:42;;;;;;;11.95;1.92;;;;;;;12.57;100.00;155682.09;4925579;29;20340;-78
2022/09/17 08:25:09;;;;;;;13.00;1.95;;;;;;;12.42;100.00;155643.56;4943636;29;20498;-79
2022/09/17 08:27:37;;;;;;;7.65;1.67;;;;;;;12.11;100.00;155566.53;4958579;28;20035;-79
2022/09/17 08:30:05;;;;;;;13.95;2.13;;;;;;;12.11;100.00;155565.22;4935589;29;20150;-77
2022/09/17 08:32:30;;;;;;;10.27;1.88;;;;;;;12.25;100.00;155601.19;4951323;28;20043;-79
2022/09/17 08:34:56;;;;;;;12.45;1.90;;;;;;;12.54;100.00;155674.38;4952707;28;20520;-77
2022/09/17 08:37:21;;;;;;;11.07;2.03;;;;;;;12.60;100.00;155689.81;4936517;28;20035;-80
2022/09/17 08:39:47;;;;;;;9.13;1.65;;;;;;;12.82;100.00;155745.03;4963610;28;20039;-79
2022/09/17 08:42:26;;;;;;;14.85;2.30;;;;;;;12.94;100.00;155774.63;4921630;28;20049;-78
2022/09/17 08:44:55;;;;;;;12.43;1.83;;;;;;;13.33;100.00;155872.28;4941144;29;20041;-77
2022/09/17 08:47:27;;;;;;;16.98;1.70;;;;;;;13.36;100.00;155880.00;4932299;28;20067;-78
2022/09/17 08:49:56;;;;;;;11.48;1.42;;;;;;;13.44;100.00;155899.28;4955415;28;20034;-77
2022/09/17 08:52:48;;;;;;;10.18;1.88;;;;;;;13.36;100.00;155878.75;4938202;28;20043;-78
2022/09/17 08:55:25;;;;;;;12.32;1.58;;;;;;;13.43;100.00;155896.75;4951259;28;20560;-78
2022/09/17 08:57:56;;;;;;;8.65;1.65;;;;;;;13.50;100.00;155913.41;4941522;29;20039;-79
2022/09/17 09:00:23;;;;;;;9.10;1.20;;;;;;;13.62;100.00;155944.28;4955817;28;20050;-78
2022/09/17 09:03:05;;;;;;;9.52;1.73;;;;;;;13.89;100.00;156012.41;4960119;28;20031;-77
2022/09/17 09:05:45;;;;;;;9.55;1.33;;;;;;;14.09;100.00;156061.25;4924883;28;20047;-80
2022/09/17 09:08:24;;;;;;;7.25;1.20;;;;;;;14.21;100.00;156093.41;4929025;28;20038;-80
2022/09/17 09:10:54;;;;;;;7.88;1.45;;;;;;;14.05;100.00;156050.97;4945641;28;20039;-79
2022/09/17 09:13:24;;;;;;;5.78;1.27;;;;;;;14.38;100.00;156135.84;4918919;28;20395;-79
2022/09/17 09:16:02;;;;;;;7.40;1.00;;;;;;;14.43;97.78;156147.44;4935961;29;20031;-80
2022/09/17 09:18:29;;;;;;;5.97;0.82;;;;;;;14.37;100.00;156133.28;4940052;28;20027;-78
2022/09/17 09:21:07;;;;;;;9.13;1.17;;;;;;;14.44;99.21;156149.97;4961987;28;20050;-80
2022/09/17 09:23:33;;;;;;;8.80;1.00;;;;;;;14.00;100.00;156040.69;4948866;28;20035;-79
2022/09/17 09:26:14;;;;;;;7.82;1.08;;;;;;;13.43;100.00;155896.75;4929324;29;20069;-78
2022/09/17 09:29:02;;;;;;;8.52;1.00;;;;;;;13.01;100.00;155792.56;4941328;29;20038;-80
2022/09/17 09:31:59;;;;;;;4.80;0.70;;;;;;;12.63;100.00;155697.50;4918090;28;20090;-78
2022/09/17 09:34:27;;;;;;;5.60;0.82;;;;;;;12.75;100.00;155725.75;4932644;28;20044;-78
2022/09/17 09:37:08;;;;;;;6.03;1.00;;;;;;;12.82;100.00;155745.03;4933964;29;20047;-79
2022/09/17 09:39:35;;;;;;;7.03;0.73;;;;;;;12.79;100.00;155736.03;4944872;28;20086;-78
2022/09/17 09:42:10;;;;;;;4.72;0.43;;;;;;;12.87;100.00;155756.59;4930032;29;20027;-78
2022/09/17 09:44:36;;;;;;;2.90;0.40;;;;;;;12.64;100.00;155700.09;4930474;29;20049;-80
2022/09/17 09:47:22;;;;;;;4.63;0.47;;;;;;;12.80;100.00;155739.88;4915455;29;20032;-78
2022/09/17 09:50:29;;;;;;;2.17;0.40;;;;;;;13.08;100.00;155809.28;4958211;28;20031;-81
2022/09/17 09:53:16;;;;;;;2.42;0.60;;;;;;;13.40;100.00;155889.00;4950532;28;20448;-80
2022/09/17 09:56:01;;;;;;;7.40;0.52;;;;;;;13.48;99.97;155908.28;4944952;28;20039;-79
2022/09/17 09:58:37;;;;;;;4.97;0.40;;;;;;;13.36;100.00;155878.75;4921863;28;20136;-79
2022/09/17 10:01:12;;;;;;;1.00;0.50;;;;;;;13.46;100.00;155904.44;4947473;28;20066;-79
2022/09/17 10:03:41;;;;;;;3.55;0.50;;;;;;;13.39;100.00;155886.41;4936396;28;20049;-78
2022/09/17 10:06:09;;;;;;;2.50;0.40;;;;;;;13.34;100.00;155874.88;4934542;29;20122;-80
2022/09/17 10:08:40;;;;;;;2.78;0.63;;;;;;;13.29;100.00;155860.69;4924156;29;20098;-78
2022/09/17 10:11:12;;;;;;;2.42;0.63;;;;;;;13.47;99.31;155905.69;4936883;29;20581;-78
2022/09/17 10:13:38;;;;;;;3.72;0.47;;;;;;;13.54;99.16;155923.69;4934679;28;20041;-79
2022/09/17 10:16:24;;;;;;;3.33;0.80;;;;;;;13.40;99.27;155890.28;4934787;29;20509;-79
2022/09/17 10:19:10;;;;;;;1.58;0.50;;;;;;;13.74;100.00;155973.84;4941759;28;20073;-78
2022/09/17 10:21:39;;;;;;;5.25;0.88;;;;;;;14.10;97.60;156063.84;4933381;29;20126;-79
2022/09/17 10:24:20;;;;;;;5.38;0.65;;;;;;;14.02;100.00;156044.56;4960132;28;20041;-78
2022/09/17 10:26:45;;;;;;;3.65;0.88;;;;;;;13.76;100.00;155980.25;4946497;28;20058;-78
2022/09/17 10:29:15;;;;;;;5.72;0.80;;;;;;;13.57;100.00;155931.44;4947082;28;20081;-78
2022/09/17 10:31:49;;;;;;;3.75;0.75;;;;;;;13.72;100.00;155969.97;4960495;28;20043;-77
2022/09/17 10:34:21;;;;;;;2.30;0.50;;;;;;;13.95;100.00;156027.81;4931707;28;20051;-80
2022/09/17 10:36:47;;;;;;;3.33;0.68;;;;;;;14.53;100.00;156173.13;4947029;28;20043;-80
2022/09/17 10:39:25;;;;;;;2.00;0.50;;;;;;;14.59;94.58;156187.31;4944550;28;20043;-79
2022/09/17 10:42:01;;;;;;;2.85;0.45;;;;;;;14.38;97.39;156135.84;4953272;28;20118;-80
2022/09/17 10:44:35;;;;;;;4.32;0.88;;;;;;;14.39;96.14;156138.41;4971564;28;20040;-78
2022/09/17 10:47:05;;;;;;;3.00;0.57;;;;;;;14.52;95.22;156170.59;4935973;29;20039;-81
2022/09/17 10:49:45;;;;;;;5.05;0.60;;;;;;;14.57;93.51;156182.19;4959367;28;20641;-81
2022/09/17 10:52:31;;;;;;;3.17;0.60;;;;;;;14.67;95.47;156206.63;4920441;28;20044;-79
2022/09/17 10:55:35;;;;;;;2.70;0.80;;;;;;;14.73;95.97;156223.34;4931840;29;20039;-78
2022/09/17 10:58:06;;;;;;;6.35;0.70;;;;;;;14.70;93.30;156215.63;4874130;29;20090;-81
2022/09/17 11:00:59;;;;;;;2.57;0.50;;;;;;;14.50;99.46;156165.41;4940070;28;20114;-79
2022/09/17 11:04:01;;;;;;;6.45;0.50;;;;;;;14.01;95.80;156043.28;4929731;28;20043;-79
2022/09/17 11:06:53;;;;;;;1.60;0.40;;;;;;;13.82;97.87;155994.41;4947069;28;20487;-78
2022/09/17 11:09:26;;;;;;;4.53;0.52;;;;;;;13.61;99.77;155942.97;4963632;28;20046;-80
2022/09/17 11:11:54;;;;;;;2.97;0.60;;;;;;;13.34;100.00;155873.59;4939472;29;20119;-79
2022/09/17 11:14:36;;;;;;;4.75;0.80;;;;;;;13.28;100.00;155859.41;4952856;28;20055;-81
2022/09/17 11:17:25;;;;;;;5.40;0.80;;;;;;;13.73;100.00;155971.25;4928395;29;20067;-79
2022/09/17 11:20:21;;;;;;;5.00;1.08;;;;;;;14.09;100.00;156062.56;4941030;28;20049;-78
2022/09/17 11:23:15;;;;;;;3.42;1.00;;;;;;;14.30;100.00;156114.00;4929565;28;20051;-79
2022/09/17 11:26:02;;;;;;;6.43;1.08;;;;;;;14.17;100.00;156083.13;4936348;28;20050;-79
2022/09/17 11:28:54;;;;;;;7.15;1.27;;;;;;;14.20;100.00;156090.84;4963193;28;20564;-79
2022/09/17 11:31:41;;;;;;;6.40;0.93;;;;;;;14.05;100.00;156052.25;4933746;28;20111;-78
2022/09/17 11:34:28;;;;;;;4.20;0.80;;;;;;;14.40;99.90;156140.97;4909071;29;20532;-77